Time;durP1;ratioP1;P1;durP2;ratioP2;P2;SDS_P1;SDS_P2;PMS_P1;PMS_P2;Temp;Humidity;BMP_temperature;BMP_pressure;BME280_temperature;BME280_humidity;BME280_pressure;Samples;Min_cycle;Max_cycle;Signal;HPM_P1;HPM_P2
2023/02/15 00:01:04;;;;;;;27.00;10.63;;;;;;;;;;5072873;28;20095;-76
2023/02/15 00:03:29;;;;;;;36.27;9.73;;;;;;;;;;5072081;28;20020;-76
2023/02/15 00:05:56;;;;;;;24.83;10.03;;;;;;;;;;5071921;28;20112;-76
2023/02/15 00:08:21;;;;;;;30.77;11.03;;;;;;;;;;5072526;28;20483;-76
2023/02/15 00:10:46;;;;;;;31.47;11.03;;;;;;;;;;5071948;28;20146;-76
2023/02/15 00:13:11;;;;;;;27.40;9.17;;;;;;;;;;5072449;28;20016;-76
2023/02/15 00:15:37;;;;;;;34.93;10.57;;;;;;;;;;5071476;28;20637;-77
2023/02/15 00:18:02;;;;;;;28.23;9.27;;;;;;;;;;5072086;28;20032;-77
2023/02/15 00:20:27;;;;;;;26.87;9.60;;;;;;;;;;5072153;28;20039;-77
2023/02/15 00:22:53;;;;;;;34.03;9.40;;;;;;;;;;5070979;28;20021;-77
2023/02/15 00:25:18;;;;;;;17.17;8.47;;;;;;;;;;5070663;28;20017;-77
2023/02/15 00:27:43;;;;;;;20.37;8.00;;;;;;;;;;5071344;28;20056;-76
2023/02/15 00:30:08;;;;;;;24.80;8.97;;;;;;;;;;5070894;28;20039;-76
2023/02/15 00:32:34;;;;;;;27.47;8.53;;;;;;;;;;5071715;28;20113;-76
2023/02/15 00:34:59;;;;;;;23.67;8.47;;;;;;;;;;5071685;28;20017;-77
2023/02/15 00:37:24;;;;;;;23.47;8.03;;;;;;;;;;5071070;28;20020;-76
2023/02/15 00:39:49;;;;;;;19.70;8.17;;;;;;;;;;5070639;28;20498;-77
2023/02/15 00:42:14;;;;;;;23.53;8.77;;;;;;;;;;5071875;28;20025;-76
2023/02/15 00:44:39;;;;;;;26.83;8.43;;;;;;;;;;5068094;28;20100;-77
2023/02/15 00:47:05;;;;;;;28.10;9.07;;;;;;;;;;5062707;28;20482;-76
2023/02/15 00:49:30;;;;;;;22.83;8.43;;;;;;;;;;5070338;28;20093;-76
2023/02/15 00:51:55;;;;;;;22.77;7.90;;;;;;;;;;5070174;28;21203;-76
2023/02/15 00:54:20;;;;;;;19.13;8.03;;;;;;;;;;5071386;28;20044;-76
2023/02/15 00:56:45;;;;;;;23.13;8.60;;;;;;;;;;5071462;28;20028;-77
2023/02/15 00:59:11;;;;;;;23.50;8.00;;;;;;;;;;5070068;28;20028;-77
2023/02/15 01:01:36;;;;;;;19.97;7.67;;;;;;;;;;5068876;28;20048;-76
2023/02/15 01:04:01;;;;;;;25.43;8.17;;;;;;;;;;5071520;28;20021;-76
2023/02/15 01:06:26;;;;;;;18.93;7.57;;;;;;;;;;5071664;28;20805;-76
2023/02/15 01:08:52;;;;;;;22.53;8.17;;;;;;;;;;5071446;28;20191;-76
2023/02/15 01:11:27;;;;;;;18.87;7.70;;;;;;;;;;5071143;28;20048;-76
2023/02/15 01:13:53;;;;;;;15.33;7.17;;;;;;;;;;5070135;28;20107;-76
2023/02/15 01:16:19;;;;;;;27.63;7.80;;;;;;;;;;5071446;28;20103;-76
2023/02/15 01:18:44;;;;;;;20.00;7.53;;;;;;;;;;5071059;28;20124;-77
2023/02/15 01:21:20;;;;;;;24.57;8.73;;;;;;;;;;5070900;28;20025;-77
2023/02/15 01:23:45;;;;;;;18.23;7.70;;;;;;;;;;5068892;28;20432;-76
2023/02/15 01:26:10;;;;;;;20.00;7.63;;;;;;;;;;5071007;28;20059;-76
2023/02/15 01:28:36;;;;;;;23.60;8.00;;;;;;;;;;5069050;28;20036;-76
2023/02/15 01:31:20;;;;;;;20.70;7.90;;;;;;;;;;5069332;28;20460;-76
2023/02/15 01:33:46;;;;;;;21.07;7.90;;;;;;;;;;5071050;28;20029;-77
2023/02/15 01:36:11;;;;;;;19.63;6.90;;;;;;;;;;5069915;28;20038;-76
2023/02/15 01:38:36;;;;;;;21.87;7.37;;;;;;;;;;5069850;28;20020;-76
2023/02/15 01:41:20;;;;;;;22.17;9.27;;;;;;;;;;5068794;28;20024;-77
2023/02/15 01:43:46;;;;;;;21.50;9.13;;;;;;;;;;5069469;28;20055;-77
2023/02/15 01:46:12;;;;;;;18.90;7.50;;;;;;;;;;5057660;28;20059;-77
2023/02/15 01:48:40;;;;;;;21.57;8.50;;;;;;;;;;5069973;28;20464;-76
2023/02/15 01:51:06;;;;;;;20.97;7.93;;;;;;;;;;5069454;28;20103;-77
2023/02/15 01:53:34;;;;;;;25.87;9.60;;;;;;;;;;5070494;28;20099;-77
2023/02/15 01:56:03;;;;;;;25.80;9.37;;;;;;;;;;5070407;28;20979;-77
2023/02/15 01:58:31;;;;;;;20.90;8.00;;;;;;;;;;5070697;28;20040;-76
2023/02/15 02:00:58;;;;;;;20.67;7.97;;;;;;;;;;5068809;28;20464;-77
2023/02/15 02:03:53;;;;;;;21.50;8.43;;;;;;;;;;5068825;28;20024;-76
2023/02/15 02:06:19;;;;;;;20.57;7.67;;;;;;;;;;5061431;28;21043;-77
2023/02/15 02:08:44;;;;;;;25.50;9.33;;;;;;;;;;5070876;28;20024;-76
2023/02/15 02:11:10;;;;;;;20.57;8.87;;;;;;;;;;5069237;28;20548;-77
2023/02/15 02:13:36;;;;;;;22.57;9.13;;;;;;;;;;5069830;28;20082;-76
2023/02/15 02:16:08;;;;;;;21.27;7.90;;;;;;;;;;5070658;28;20028;-76
2023/02/15 02:18:33;;;;;;;;;;;;;;;;;;5071309;28;20024;-76
2023/02/15 02:21:15;;;;;;;21.45;8.35;;;;;;;;;;5069958;28;19916;-76
2023/02/15 02:23:58;;;;;;;24.13;9.32;;;;;;;;;;5068859;28;20078;-76
2023/02/15 02:26:26;;;;;;;24.57;8.90;;;;;;;;;;5066829;28;20353;-76
2023/02/15 02:29:05;;;;;;;28.43;8.93;;;;;;;;;;5068086;28;20044;-76
2023/02/15 02:31:36;;;;;;;24.13;9.13;;;;;;;;;;5069150;28;20059;-77
2023/02/15 02:34:20;;;;;;;21.10;7.83;;;;;;;;;;5070344;28;20020;-76
2023/02/15 02:36:50;;;;;;;25.70;10.03;;;;;;;;;;5068291;28;20036;-77
2023/02/15 02:39:19;;;;;;;27.93;8.87;;;;;;;;;;5068435;28;20090;-77
2023/02/15 02:41:50;;;;;;;24.10;8.37;;;;;;;;;;5070283;28;20456;-77
2023/02/15 02:44:33;;;;;;;22.83;7.50;;;;;;;;;;5069874;28;20067;-76
2023/02/15 02:47:10;;;;;;;20.20;7.77;;;;;;;;;;5070161;28;20024;-76
2023/02/15 02:49:36;;;;;;;26.53;9.03;;;;;;;;;;5068845;28;20499;-77
2023/02/15 02:52:03;;;;;;;19.23;7.67;;;;;;;;;;5070400;28;20052;-77
2023/02/15 02:54:28;;;;;;;27.00;9.47;;;;;;;;;;5066707;28;20036;-76
2023/02/15 02:56:55;;;;;;;24.77;10.13;;;;;;;;;;5070063;28;20047;-76
2023/02/15 02:59:23;;;;;;;25.00;9.00;;;;;;;;;;5068773;28;20107;-77
2023/02/15 03:01:55;;;;;;;24.13;9.47;;;;;;;;;;5067990;28;20401;-77
2023/02/15 03:04:22;;;;;;;21.30;8.52;;;;;;;;;;5072603;28;20025;-77
2023/02/15 03:06:57;;;;;;;20.53;7.77;;;;;;;;;;5072158;28;20063;-76
2023/02/15 03:09:25;;;;;;;24.70;8.37;;;;;;;;;;5071816;28;20043;-77
2023/02/15 03:11:50;;;;;;;19.27;8.07;;;;;;;;;;5073272;28;20107;-77
2023/02/15 03:14:18;;;;;;;19.67;7.93;;;;;;;;;;5071138;28;20047;-77
2023/02/15 03:16:44;;;;;;;22.97;8.03;;;;;;;;;;5060043;28;20037;-76
2023/02/15 03:19:13;;;;;;;21.40;8.93;;;;;;;;;;5073636;28;20032;-76
2023/02/15 03:21:42;;;;;;;20.63;8.50;;;;;;;;;;5073200;28;20020;-76
2023/02/15 03:24:09;;;;;;;26.00;8.97;;;;;;;;;;5073263;28;20032;-76
2023/02/15 03:26:35;;;;;;;20.50;7.87;;;;;;;;;;5069569;28;20028;-77
2023/02/15 03:29:02;;;;;;;19.33;7.87;;;;;;;;;;5073272;28;20029;-77
2023/02/15 03:31:30;;;;;;;23.30;8.97;;;;;;;;;;5071813;28;20036;-77
2023/02/15 03:33:59;;;;;;;24.00;8.77;;;;;;;;;;5072967;28;20033;-77
2023/02/15 03:36:31;;;;;;;24.33;9.27;;;;;;;;;;5073507;28;20027;-76
2023/02/15 03:39:05;;;;;;;25.60;9.93;;;;;;;;;;5065925;28;20029;-76
2023/02/15 03:41:33;;;;;;;27.17;10.13;;;;;;;;;;5072451;28;20054;-76
2023/02/15 03:44:06;;;;;;;22.40;9.60;;;;;;;;;;5072979;28;20401;-77
2023/02/15 03:46:31;;;;;;;21.87;8.87;;;;;;;;;;5067057;28;20415;-76
2023/02/15 03:49:11;;;;;;;20.80;8.77;;;;;;;;;;5072544;28;20158;-77
2023/02/15 03:51:39;;;;;;;23.90;8.87;;;;;;;;;;5071031;28;20034;-77
2023/02/15 03:54:38;;;;;;;16.67;8.20;;;;;;;;;;5071136;28;20017;-76
2023/02/15 04:02:35;;;;;;;26.90;8.70;;;;;;;;;;5073017;28;20043;-77
2023/02/15 04:05:00;;;;;;;27.27;9.37;;;;;;;;;;5072504;28;20088;-76
2023/02/15 04:07:26;;;;;;;22.07;8.23;;;;;;;;;;5072746;28;20051;-76
2023/02/15 04:12:35;;;;;;;20.47;7.43;;;;;;;;;;5072470;28;20090;-77
2023/02/15 04:17:44;;;;;;;22.17;8.90;;;;;;;;;;5072627;28;20030;-76
2023/02/15 04:25:37;;;;;;;22.77;8.50;;;;;;;;;;5072355;28;20482;-77
2023/02/15 04:28:02;;;;;;;23.17;9.30;;;;;;;;;;5071172;28;20107;-76
2023/02/15 04:30:28;;;;;;;27.20;8.50;;;;;;;;;;5072050;28;20100;-77
2023/02/15 04:32:53;;;;;;;25.27;7.70;;;;;;;;;;5069507;28;20482;-77
2023/02/15 04:35:19;;;;;;;26.13;9.73;;;;;;;;;;5071937;28;20565;-77
2023/02/15 04:37:44;;;;;;;20.73;8.63;;;;;;;;;;5072311;28;20020;-77
2023/02/15 04:40:10;;;;;;;27.43;7.93;;;;;;;;;;5071573;28;20359;-77
2023/02/15 04:42:35;;;;;;;23.80;7.17;;;;;;;;;;5071850;28;20040;-77
2023/02/15 04:45:01;;;;;;;29.40;9.43;;;;;;;;;;5067395;28;20048;-76
2023/02/15 04:47:26;;;;;;;30.03;9.73;;;;;;;;;;5072250;28;20653;-76
2023/02/15 04:49:51;;;;;;;26.63;10.10;;;;;;;;;;5071642;28;20020;-77
2023/02/15 04:52:17;;;;;;;30.83;11.40;;;;;;;;;;5072125;28;20073;-76
2023/02/15 04:54:42;;;;;;;26.80;10.80;;;;;;;;;;5070275;28;20119;-77
2023/02/15 04:57:08;;;;;;;27.37;10.97;;;;;;;;;;5070559;28;20040;-76
2023/02/15 04:59:33;;;;;;;27.83;11.00;;;;;;;;;;5071356;28;20020;-76
2023/02/15 05:01:58;;;;;;;26.47;11.47;;;;;;;;;;5071437;28;20081;-76
2023/02/15 05:04:23;;;;;;;25.57;9.60;;;;;;;;;;5071282;28;20016;-76
2023/02/15 05:06:49;;;;;;;22.60;9.23;;;;;;;;;;5069705;28;20359;-77
2023/02/15 05:09:14;;;;;;;28.17;9.73;;;;;;;;;;5070283;28;20020;-76
2023/02/15 05:11:39;;;;;;;29.20;10.00;;;;;;;;;;5071631;28;20021;-77
2023/02/15 05:14:04;;;;;;;20.97;8.90;;;;;;;;;;5071417;28;20107;-77
2023/02/15 05:16:30;;;;;;;27.17;9.43;;;;;;;;;;5071761;28;20105;-77
2023/02/15 05:18:55;;;;;;;27.00;9.20;;;;;;;;;;5071140;28;20034;-76
2023/02/15 05:21:20;;;;;;;24.57;9.00;;;;;;;;;;5070129;28;20446;-77
2023/02/15 05:23:45;;;;;;;26.23;9.97;;;;;;;;;;5070320;28;20040;-77
2023/02/15 05:28:55;;;;;;;21.83;8.23;;;;;;;;;;5071661;28;20046;-77
2023/02/15 05:31:20;;;;;;;22.73;10.07;;;;;;;;;;5071011;28;20025;-77
2023/02/15 05:33:46;;;;;;;25.37;10.27;;;;;;;;;;5070905;28;20039;-77
2023/02/15 05:36:11;;;;;;;24.63;9.53;;;;;;;;;;5069480;28;20025;-77
2023/02/15 05:38:37;;;;;;;21.57;8.63;;;;;;;;;;5071158;28;20086;-77
2023/02/15 05:41:03;;;;;;;32.10;11.10;;;;;;;;;;5070802;28;20032;-77
2023/02/15 05:43:28;;;;;;;24.63;9.13;;;;;;;;;;5069781;28;20009;-77
2023/02/15 05:45:54;;;;;;;26.47;8.93;;;;;;;;;;5068594;28;20024;-76
2023/02/15 05:48:20;;;;;;;20.97;8.03;;;;;;;;;;5070992;28;20111;-77
2023/02/15 05:50:45;;;;;;;24.97;9.10;;;;;;;;;;5069360;28;20027;-77
2023/02/15 05:53:11;;;;;;;21.63;7.57;;;;;;;;;;5071125;28;20033;-77
2023/02/15 05:55:39;;;;;;;27.03;9.50;;;;;;;;;;5069639;28;20047;-77
2023/02/15 05:58:05;;;;;;;20.57;7.87;;;;;;;;;;5068547;28;20448;-77
2023/02/15 06:00:30;;;;;;;26.27;9.80;;;;;;;;;;5069194;28;20101;-77
2023/02/15 06:02:55;;;;;;;20.80;8.47;;;;;;;;;;5069686;28;20090;-77
2023/02/15 06:05:21;;;;;;;21.93;9.70;;;;;;;;;;5069179;28;20012;-77
2023/02/15 06:07:46;;;;;;;25.07;10.77;;;;;;;;;;5070545;28;20070;-76
2023/02/15 06:10:11;;;;;;;24.37;9.27;;;;;;;;;;5064462;28;20115;-77
2023/02/15 06:12:36;;;;;;;23.67;9.10;;;;;;;;;;5069437;28;20043;-77
2023/02/15 06:15:02;;;;;;;29.97;10.73;;;;;;;;;;5068323;28;20429;-77
2023/02/15 06:17:27;;;;;;;22.13;8.73;;;;;;;;;;5070101;28;20060;-77
2023/02/15 06:19:52;;;;;;;21.17;8.27;;;;;;;;;;5066633;28;20029;-77
2023/02/15 06:22:18;;;;;;;22.50;8.97;;;;;;;;;;5069695;28;20023;-77
2023/02/15 06:24:43;;;;;;;32.67;11.40;;;;;;;;;;5065861;28;20151;-76
2023/02/15 06:27:09;;;;;;;32.17;10.17;;;;;;;;;;5070620;28;20028;-77
2023/02/15 06:29:34;;;;;;;22.87;8.90;;;;;;;;;;5069525;28;20017;-76
2023/02/15 06:32:00;;;;;;;22.30;8.10;;;;;;;;;;5069492;28;20036;-77
2023/02/15 06:34:29;;;;;;;22.83;8.23;;;;;;;;;;5068916;28;20094;-76
2023/02/15 06:36:54;;;;;;;20.47;8.57;;;;;;;;;;5070537;28;20364;-76
2023/02/15 06:39:19;;;;;;;20.73;9.40;;;;;;;;;;5071427;28;20025;-77
2023/02/15 06:41:44;;;;;;;28.97;9.20;;;;;;;;;;5071332;28;20043;-76
2023/02/15 06:44:09;;;;;;;21.13;8.70;;;;;;;;;;5074269;28;20491;-76
2023/02/15 06:46:34;;;;;;;31.27;9.83;;;;;;;;;;5073820;28;20025;-76
2023/02/15 06:49:00;;;;;;;17.87;7.63;;;;;;;;;;5072400;28;20024;-76
2023/02/15 06:51:25;;;;;;;26.97;10.27;;;;;;;;;;5072452;28;20024;-76
2023/02/15 06:53:50;;;;;;;28.93;10.97;;;;;;;;;;5072122;28;20025;-76
2023/02/15 06:56:15;;;;;;;24.03;8.37;;;;;;;;;;5073347;28;20486;-77
2023/02/15 06:58:41;;;;;;;26.23;9.27;;;;;;;;;;5073445;28;20144;-77
2023/02/15 07:01:07;;;;;;;25.60;9.70;;;;;;;;;;5070354;28;20021;-77
2023/02/15 07:03:33;;;;;;;33.67;10.53;;;;;;;;;;5072636;28;20120;-77
2023/02/15 07:06:00;;;;;;;28.57;9.43;;;;;;;;;;5072355;28;20020;-77
2023/02/15 07:08:26;;;;;;;26.43;9.70;;;;;;;;;;5073787;28;20027;-77
2023/02/15 07:10:51;;;;;;;28.37;10.57;;;;;;;;;;5071126;28;20059;-77
2023/02/15 07:13:17;;;;;;;30.10;9.83;;;;;;;;;;5071552;28;20573;-77
2023/02/15 07:15:42;;;;;;;22.27;9.67;;;;;;;;;;5072444;28;20108;-77
2023/02/15 07:18:08;;;;;;;22.73;9.63;;;;;;;;;;5071582;28;20044;-76
2023/02/15 07:20:35;;;;;;;26.40;8.77;;;;;;;;;;5069867;28;20107;-77
2023/02/15 07:23:00;;;;;;;24.60;9.80;;;;;;;;;;5071476;28;20023;-76
2023/02/15 07:25:25;;;;;;;22.03;9.20;;;;;;;;;;5070255;28;20020;-77
2023/02/15 07:27:57;;;;;;;21.60;8.40;;;;;;;;;;5071930;28;20027;-77
2023/02/15 07:30:23;;;;;;;22.00;9.30;;;;;;;;;;5069310;28;20024;-77
2023/02/15 07:35:32;;;;;;;27.97;10.47;;;;;;;;;;5070847;28;20048;-77
2023/02/15 07:37:58;;;;;;;24.83;10.10;;;;;;;;;;5071559;28;20012;-77
2023/02/15 07:40:23;;;;;;;30.17;11.60;;;;;;;;;;5071783;28;20020;-77
2023/02/15 07:42:48;;;;;;;41.33;15.10;;;;;;;;;;5072678;28;20011;-77
2023/02/15 07:45:13;;;;;;;35.67;12.27;;;;;;;;;;5070074;28;20107;-77
2023/02/15 07:47:38;;;;;;;48.03;12.07;;;;;;;;;;5071303;28;20032;-77
2023/02/15 07:50:04;;;;;;;42.10;13.73;;;;;;;;;;5068676;28;20774;-77
2023/02/15 07:52:29;;;;;;;29.70;10.77;;;;;;;;;;5070760;28;20024;-77
2023/02/15 07:54:54;;;;;;;33.53;10.87;;;;;;;;;;5070187;28;20025;-77
2023/02/15 07:57:19;;;;;;;29.83;12.23;;;;;;;;;;5066959;28;20060;-77
2023/02/15 07:59:45;;;;;;;34.63;12.53;;;;;;;;;;5069500;28;20026;-77
2023/02/15 08:02:10;;;;;;;35.47;12.57;;;;;;;;;;5066407;28;20474;-77
2023/02/15 08:04:35;;;;;;;29.17;10.80;;;;;;;;;;5069100;28;20114;-77
2023/02/15 08:07:01;;;;;;;23.50;9.93;;;;;;;;;;5070941;28;20476;-77
2023/02/15 08:09:26;;;;;;;31.40;11.30;;;;;;;;;;5071982;28;20046;-77
2023/02/15 08:11:51;;;;;;;30.83;10.87;;;;;;;;;;5069702;28;20090;-77
2023/02/15 08:14:17;;;;;;;34.53;10.07;;;;;;;;;;5067702;28;20566;-77
2023/02/15 08:16:47;;;;;;;26.27;10.97;;;;;;;;;;5071679;28;20066;-77
2023/02/15 08:19:12;;;;;;;19.43;8.57;;;;;;;;;;5070711;28;20029;-77
2023/02/15 08:21:39;;;;;;;21.90;9.13;;;;;;;;;;5067163;28;20032;-77
2023/02/15 08:24:05;;;;;;;23.67;9.33;;;;;;;;;;5069558;28;20119;-77
2023/02/15 08:26:30;;;;;;;22.57;8.93;;;;;;;;;;5070671;28;20107;-77
2023/02/15 08:28:56;;;;;;;27.87;10.37;;;;;;;;;;5069186;28;20043;-77
2023/02/15 08:31:21;;;;;;;28.40;9.93;;;;;;;;;;5070612;28;20036;-77
2023/02/15 08:33:47;;;;;;;26.27;8.97;;;;;;;;;;5071638;28;20432;-77
2023/02/15 08:36:14;;;;;;;32.07;10.10;;;;;;;;;;5070390;28;20035;-77
2023/02/15 08:38:39;;;;;;;32.23;8.37;;;;;;;;;;5070655;28;20135;-77
2023/02/15 08:41:12;;;;;;;28.87;9.07;;;;;;;;;;5070067;28;20138;-77
2023/02/15 08:43:38;;;;;;;20.70;8.70;;;;;;;;;;5069275;28;20024;-77
2023/02/15 08:46:04;;;;;;;21.33;8.53;;;;;;;;;;5068277;28;20042;-77
2023/02/15 08:48:29;;;;;;;19.80;8.70;;;;;;;;;;5069900;28;20487;-77
2023/02/15 08:50:54;;;;;;;23.23;8.77;;;;;;;;;;5067404;28;20047;-77
2023/02/15 08:53:21;;;;;;;21.60;8.40;;;;;;;;;;5069804;28;20047;-77
2023/02/15 08:55:46;;;;;;;23.87;8.93;;;;;;;;;;5070341;28;20025;-77
2023/02/15 08:58:12;;;;;;;20.47;8.77;;;;;;;;;;5071510;28;20036;-76
2023/02/15 09:00:37;;;;;;;20.27;8.20;;;;;;;;;;5070363;28;20021;-76
2023/02/15 09:03:03;;;;;;;18.90;8.20;;;;;;;;;;5070124;28;20107;-76
2023/02/15 09:05:28;;;;;;;22.70;8.00;;;;;;;;;;5068371;28;20017;-76
2023/02/15 09:07:53;;;;;;;22.07;8.47;;;;;;;;;;5070077;28;20020;-76
2023/02/15 09:10:18;;;;;;;22.97;9.47;;;;;;;;;;5068998;28;20026;-76
2023/02/15 09:12:43;;;;;;;24.37;9.40;;;;;;;;;;5070073;28;20020;-76
2023/02/15 09:15:09;;;;;;;21.57;8.07;;;;;;;;;;5070070;28;20086;-76
2023/02/15 09:17:34;;;;;;;23.73;7.67;;;;;;;;;;5070935;28;20040;-76
2023/02/15 09:19:59;;;;;;;17.53;6.73;;;;;;;;;;5069465;28;20111;-76
2023/02/15 09:22:24;;;;;;;16.60;7.37;;;;;;;;;;5067991;28;20093;-76
2023/02/15 09:24:49;;;;;;;26.40;10.00;;;;;;;;;;5070022;28;20017;-77
2023/02/15 09:27:14;;;;;;;20.80;8.20;;;;;;;;;;5070583;28;20025;-75
2023/02/15 09:29:40;;;;;;;27.80;8.30;;;;;;;;;;5069919;28;20380;-75
2023/02/15 09:32:05;;;;;;;24.05;7.70;;;;;;;;;;5069520;28;20452;-77
2023/02/15 09:34:30;;;;;;;22.87;9.47;;;;;;;;;;5071051;28;20048;-77
2023/02/15 09:36:55;;;;;;;27.57;8.87;;;;;;;;;;5069714;28;20044;-77
2023/02/15 09:39:23;;;;;;;21.17;8.00;;;;;;;;;;5070815;28;20474;-78
2023/02/15 09:42:09;;;;;;;24.50;9.23;;;;;;;;;;5070897;28;20101;-77
2023/02/15 09:45:06;;;;;;;20.57;7.10;;;;;;;;;;5063414;28;20048;-77
2023/02/15 09:47:42;;;;;;;24.85;8.18;;;;;;;;;;5041877;28;20082;-77
2023/02/15 09:50:22;;;;;;;18.90;7.78;;;;;;;;;;5071013;28;20024;-78
2023/02/15 09:52:57;;;;;;;24.55;7.60;;;;;;;;;;5071239;28;20428;-77
2023/02/15 09:55:37;;;;;;;15.65;6.32;;;;;;;;;;5069224;28;20036;-77
2023/02/15 09:58:11;;;;;;;18.75;6.82;;;;;;;;;;5068455;28;20021;-77
2023/02/15 10:00:54;;;;;;;23.85;8.65;;;;;;;;;;5069585;28;20023;-77
2023/02/15 10:03:25;;;;;;;21.95;8.55;;;;;;;;;;5071529;28;20101;-77
2023/02/15 10:05:57;;;;;;;27.63;8.60;;;;;;;;;;5070891;28;20098;-77
2023/02/15 10:08:34;;;;;;;14.33;7.03;;;;;;;;;;5070701;28;20403;-77
2023/02/15 10:14:13;;;;;;;15.82;7.63;;;;;;;;;;5073634;28;20163;-77
2023/02/15 10:17:02;;;;;;;25.30;9.23;;;;;;;;;;5058288;28;20049;-77
2023/02/15 10:19:33;;;;;;;26.15;8.65;;;;;;;;;;5070249;28;20692;-77
2023/02/15 10:21:58;;;;;;;26.00;8.40;;;;;;;;;;5074103;28;20029;-77
2023/02/15 10:24:23;;;;;;;22.73;8.75;;;;;;;;;;5074269;28;20253;-77
2023/02/15 10:26:49;;;;;;;17.65;7.80;;;;;;;;;;5074418;28;20105;-77
2023/02/15 10:29:26;;;;;;;24.40;8.20;;;;;;;;;;5074911;28;20017;-77
2023/02/15 10:32:00;;;;;;;19.42;7.82;;;;;;;;;;5072156;28;20482;-77
2023/02/15 10:34:39;;;;;;;13.18;5.80;;;;;;;;;;5070713;28;20024;-77
2023/02/15 10:37:17;;;;;;;24.75;8.63;;;;;;;;;;5074945;28;20020;-77
2023/02/15 10:39:54;;;;;;;19.98;8.05;;;;;;;;;;5073093;28;20067;-77
2023/02/15 10:42:38;;;;;;;17.90;6.60;;;;;;;;;;5073186;28;20471;-77
2023/02/15 10:45:03;;;;;;;21.52;9.02;;;;;;;;;;5069796;28;20017;-77
2023/02/15 10:47:33;;;;;;;21.63;8.35;;;;;;;;;;5074682;28;20024;-77
2023/02/15 10:49:58;;;;;;;25.70;10.02;;;;;;;;;;5074096;28;20021;-77
2023/02/15 10:52:44;;;;;;;23.67;8.63;;;;;;;;;;5074490;28;20058;-77
2023/02/15 10:55:24;;;;;;;15.55;6.65;;;;;;;;;;5047583;28;20405;-77
2023/02/15 10:57:52;;;;;;;25.27;8.73;;;;;;;;;;5074418;28;20081;-78
2023/02/15 11:00:32;;;;;;;21.35;7.28;;;;;;;;;;5074049;28;20012;-77
2023/02/15 11:03:04;;;;;;;19.13;7.68;;;;;;;;;;5074207;28;20021;-77
2023/02/15 11:05:29;;;;;;;20.38;7.15;;;;;;;;;;5070964;28;20066;-77
2023/02/15 11:07:57;;;;;;;17.83;6.53;;;;;;;;;;5071149;28;20020;-77
2023/02/15 11:10:42;;;;;;;25.15;8.98;;;;;;;;;;5067760;28;20101;-77
2023/02/15 11:13:13;;;;;;;23.60;8.70;;;;;;;;;;5073923;28;20033;-77
2023/02/15 11:15:52;;;;;;;18.83;6.25;;;;;;;;;;5074016;28;20058;-77
2023/02/15 11:18:17;;;;;;;22.20;7.80;;;;;;;;;;5060431;28;20036;-77
2023/02/15 11:20:42;;;;;;;23.90;7.40;;;;;;;;;;5073230;28;20077;-77
2023/02/15 11:23:15;;;;;;;26.65;8.93;;;;;;;;;;5073640;28;20412;-77
2023/02/15 11:25:40;;;;;;;25.23;7.55;;;;;;;;;;5073445;28;20542;-77
2023/02/15 11:28:10;;;;;;;21.77;7.57;;;;;;;;;;5073680;28;20020;-77
2023/02/15 11:30:44;;;;;;;19.75;6.82;;;;;;;;;;5072489;28;20047;-77
2023/02/15 11:33:18;;;;;;;21.70;8.98;;;;;;;;;;5072125;28;20047;-77
2023/02/15 11:35:50;;;;;;;21.02;7.88;;;;;;;;;;5072257;28;20460;-77
2023/02/15 11:38:23;;;;;;;23.15;7.88;;;;;;;;;;5072277;28;20108;-77
2023/02/15 11:40:51;;;;;;;22.08;8.23;;;;;;;;;;5071911;28;20428;-78
2023/02/15 11:43:20;;;;;;;17.35;7.07;;;;;;;;;;5072424;28;20379;-77
2023/02/15 11:45:46;;;;;;;24.20;6.90;;;;;;;;;;5070001;28;20448;-77
2023/02/15 11:48:12;;;;;;;17.60;7.18;;;;;;;;;;5073695;28;20012;-77
2023/02/15 11:50:38;;;;;;;18.90;7.90;;;;;;;;;;5072060;28;20048;-77
2023/02/15 11:53:25;;;;;;;15.52;6.78;;;;;;;;;;5071837;28;20040;-77
2023/02/15 11:55:53;;;;;;;21.70;8.30;;;;;;;;;;5071670;28;20028;-78
2023/02/15 11:58:21;;;;;;;21.52;7.68;;;;;;;;;;5072791;28;20017;-77
2023/02/15 12:00:47;;;;;;;22.17;7.07;;;;;;;;;;5071429;28;20121;-78
2023/02/15 12:03:15;;;;;;;24.52;8.07;;;;;;;;;;5073105;28;20107;-77
2023/02/15 12:05:42;;;;;;;17.63;5.53;;;;;;;;;;5072446;28;20044;-77
2023/02/15 12:08:18;;;;;;;20.58;6.13;;;;;;;;;;5072082;28;20082;-78
2023/02/15 12:11:22;;;;;;;20.67;8.15;;;;;;;;;;5072408;28;20298;-77
2023/02/15 12:13:55;;;;;;;18.38;6.95;;;;;;;;;;5030907;28;20128;-77
2023/02/15 12:16:20;;;;;;;24.33;7.75;;;;;;;;;;5030573;28;20013;-78
2023/02/15 12:18:46;;;;;;;24.73;6.88;;;;;;;;;;5034448;28;20024;-77
2023/02/15 12:21:14;;;;;;;22.88;7.43;;;;;;;;;;5071001;28;20020;-78
2023/02/15 12:23:46;;;;;;;22.90;8.48;;;;;;;;;;5072757;28;20139;-77
2023/02/15 12:26:12;;;;;;;25.90;8.23;;;;;;;;;;5071056;28;20049;-77
2023/02/15 12:28:42;;;;;;;16.85;6.53;;;;;;;;;;5072569;28;20130;-77
2023/02/15 12:31:19;;;;;;;20.05;7.20;;;;;;;;;;5070148;28;20123;-77
2023/02/15 12:33:45;;;;;;;21.27;8.52;;;;;;;;;;5072816;28;20083;-77
2023/02/15 12:36:12;;;;;;;27.90;8.60;;;;;;;;;;5071495;28;20025;-77
2023/02/15 12:38:37;;;;;;;21.25;8.60;;;;;;;;;;5070832;28;20025;-77
2023/02/15 12:41:04;;;;;;;19.13;7.38;;;;;;;;;;5070698;28;20465;-77
2023/02/15 12:43:31;;;;;;;22.70;7.40;;;;;;;;;;5071565;28;20356;-77
2023/02/15 12:46:14;;;;;;;22.52;7.32;;;;;;;;;;5071749;28;20020;-77
2023/02/15 12:48:39;;;;;;;25.00;8.18;;;;;;;;;;5070838;28;20036;-77
2023/02/15 12:51:09;;;;;;;20.75;7.75;;;;;;;;;;5072213;28;20024;-77
2023/02/15 12:53:35;;;;;;;27.05;7.45;;;;;;;;;;5072095;28;20032;-77
2023/02/15 12:56:01;;;;;;;23.58;6.88;;;;;;;;;;5070755;28;20020;-77
2023/02/15 12:58:30;;;;;;;20.55;7.43;;;;;;;;;;5069937;28;20035;-77
2023/02/15 13:01:13;;;;;;;19.33;6.65;;;;;;;;;;5070446;28;20013;-77
2023/02/15 13:03:57;;;;;;;22.75;7.68;;;;;;;;;;5072118;28;20025;-77
2023/02/15 13:06:23;;;;;;;19.60;8.00;;;;;;;;;;5070600;28;20380;-77
2023/02/15 13:08:50;;;;;;;19.90;8.13;;;;;;;;;;5070894;28;20020;-77
2023/02/15 13:11:21;;;;;;;24.45;7.93;;;;;;;;;;5071573;28;20432;-77
2023/02/15 13:13:56;;;;;;;22.50;7.88;;;;;;;;;;5070353;28;20077;-77
2023/02/15 13:16:29;;;;;;;24.60;7.30;;;;;;;;;;5070172;28;20013;-77
2023/02/15 13:18:54;;;;;;;18.30;6.90;;;;;;;;;;5069989;28;20429;-78
2023/02/15 13:21:39;;;;;;;24.85;8.50;;;;;;;;;;5070229;28;20029;-77
2023/02/15 13:24:15;;;;;;;20.67;7.78;;;;;;;;;;5071307;28;20020;-77
2023/02/15 13:26:44;;;;;;;22.80;7.53;;;;;;;;;;5071240;28;20024;-77
2023/02/15 13:29:15;;;;;;;32.88;8.88;;;;;;;;;;5071417;28;20457;-77
2023/02/15 13:31:40;;;;;;;19.90;6.50;;;;;;;;;;5064097;28;20361;-78
2023/02/15 13:34:11;;;;;;;23.88;7.78;;;;;;;;;;5069582;28;20035;-77
2023/02/15 13:36:41;;;;;;;19.02;7.88;;;;;;;;;;5071062;28;20535;-77
2023/02/15 13:39:21;;;;;;;20.35;7.68;;;;;;;;;;5069716;28;20025;-77
2023/02/15 13:41:52;;;;;;;18.52;8.38;;;;;;;;;;5069705;28;20043;-77
2023/02/15 13:44:26;;;;;;;27.30;9.45;;;;;;;;;;5068371;28;20021;-77
2023/02/15 13:46:57;;;;;;;22.85;7.53;;;;;;;;;;5069776;28;20093;-77
2023/02/15 13:49:22;;;;;;;25.88;9.38;;;;;;;;;;5071027;28;20040;-77
2023/02/15 13:52:06;;;;;;;24.90;7.75;;;;;;;;;;5071444;28;20015;-77
2023/02/15 13:54:32;;;;;;;15.65;7.15;;;;;;;;;;5069097;28;20025;-77
2023/02/15 13:56:57;;;;;;;28.30;8.77;;;;;;;;;;5071383;28;20020;-77
2023/02/15 13:59:27;;;;;;;23.13;9.73;;;;;;;;;;5070927;28;20447;-77
2023/02/15 14:01:58;;;;;;;21.02;8.35;;;;;;;;;;5071174;28;20021;-77
2023/02/15 14:04:42;;;;;;;25.23;8.35;;;;;;;;;;5070026;28;20044;-77
2023/02/15 14:07:22;;;;;;;27.38;8.68;;;;;;;;;;5070907;28;20024;-77
2023/02/15 14:09:59;;;;;;;26.45;8.98;;;;;;;;;;5070915;28;20025;-77
2023/02/15 14:12:24;;;;;;;22.77;8.02;;;;;;;;;;5069813;28;20025;-77
2023/02/15 14:15:03;;;;;;;25.08;7.97;;;;;;;;;;5070792;28;20733;-77
2023/02/15 14:17:40;;;;;;;16.30;6.88;;;;;;;;;;5071101;28;20035;-77
2023/02/15 14:20:17;;;;;;;24.30;9.20;;;;;;;;;;5070908;28;20458;-78
2023/02/15 14:22:44;;;;;;;28.92;8.27;;;;;;;;;;5070697;28;20064;-77
2023/02/15 14:25:18;;;;;;;21.98;7.97;;;;;;;;;;5069413;28;20029;-77
2023/02/15 14:28:02;;;;;;;23.25;9.63;;;;;;;;;;5070858;28;20066;-76
2023/02/15 14:30:32;;;;;;;23.20;8.80;;;;;;;;;;5069477;28;20052;-77
2023/02/15 14:33:04;;;;;;;28.75;8.63;;;;;;;;;;5069520;28;20028;-77
2023/02/15 14:35:30;;;;;;;18.80;7.43;;;;;;;;;;5070379;28;20028;-77
2023/02/15 14:38:01;;;;;;;28.15;10.20;;;;;;;;;;5069859;28;20479;-78
2023/02/15 14:43:23;;;;;;;22.20;8.98;;;;;;;;;;5070437;28;20345;-77
2023/02/15 14:45:52;;;;;;;20.98;8.07;;;;;;;;;;5070159;28;20100;-77
2023/02/15 14:48:21;;;;;;;19.45;7.40;;;;;;;;;;5070765;28;20082;-77
2023/02/15 14:50:47;;;;;;;24.77;8.80;;;;;;;;;;5067169;28;20028;-77
2023/02/15 14:53:15;;;;;;;22.10;8.15;;;;;;;;;;5070587;28;20024;-77
2023/02/15 14:55:40;;;;;;;20.52;8.60;;;;;;;;;;5070533;28;20100;-77
2023/02/15 14:58:10;;;;;;;23.98;9.23;;;;;;;;;;5069437;28;20107;-77
2023/02/15 15:00:37;;;;;;;21.95;8.15;;;;;;;;;;5073211;28;20031;-77
2023/02/15 15:03:09;;;;;;;18.55;8.05;;;;;;;;;;5074359;28;20024;-78
2023/02/15 15:05:35;;;;;;;29.75;8.27;;;;;;;;;;5073596;28;20096;-77